Time;durP1;ratioP1;P1;durP2;ratioP2;P2;SDS_P1;SDS_P2;PMS_P1;PMS_P2;Temp;Humidity;BMP_temperature;BMP_pressure;BME280_temperature;BME280_humidity;BME280_pressure;Samples;Min_cycle;Max_cycle;Signal;HPM_P1;HPM_P2
2022/04/30 00:02:07;;;;;;;8.48;5.40;;;;;;;9.17;80.67;98536.00;5059031;28;20086;-76
2022/04/30 00:04:35;;;;;;;8.23;5.32;;;;;;;9.23;80.95;98529.44;5058757;28;20029;-77
2022/04/30 00:07:00;;;;;;;7.55;5.38;;;;;;;9.33;80.55;98531.34;5053671;28;20029;-83
2022/04/30 00:09:26;;;;;;;10.52;6.13;;;;;;;9.30;80.59;98530.00;5053144;28;20032;-75
2022/04/30 00:11:51;;;;;;;8.95;5.93;;;;;;;9.34;79.96;98530.25;5052069;28;20039;-75
2022/04/30 00:14:16;;;;;;;7.68;5.35;;;;;;;9.22;81.10;98521.50;5053812;28;20048;-76
2022/04/30 00:16:42;;;;;;;10.60;5.68;;;;;;;9.35;80.68;98520.97;5054823;28;20021;-80
2022/04/30 00:19:08;;;;;;;9.90;5.43;;;;;;;9.25;80.75;98529.97;5059328;28;20564;-78
2022/04/30 00:21:34;;;;;;;10.95;5.75;;;;;;;9.09;81.12;98533.78;5057209;28;20024;-76
2022/04/30 00:23:59;;;;;;;11.23;5.57;;;;;;;8.97;81.40;98527.75;5053064;28;20033;-76
2022/04/30 00:26:24;;;;;;;8.98;5.38;;;;;;;9.00;82.19;98524.50;5051478;28;20059;-76
2022/04/30 00:28:52;;;;;;;8.63;5.47;;;;;;;8.98;82.60;98529.41;5052687;28;20048;-75
2022/04/30 00:31:17;;;;;;;8.00;5.25;;;;;;;9.20;82.08;98526.44;5052686;28;20028;-77
2022/04/30 00:33:47;;;;;;;7.22;5.00;;;;;;;9.34;80.95;98527.50;5052791;28;20029;-75
2022/04/30 00:36:14;;;;;;;9.57;4.85;;;;;;;9.26;81.24;98534.34;5052521;28;20733;-76
2022/04/30 00:38:39;;;;;;;10.27;5.30;;;;;;;9.22;81.48;98526.97;5052693;28;20123;-75
2022/04/30 00:41:06;;;;;;;9.23;5.50;;;;;;;9.23;81.64;98523.97;5051352;28;20136;-75
2022/04/30 00:43:45;;;;;;;9.93;5.72;;;;;;;9.19;81.68;98517.41;5052418;28;20024;-76
2022/04/30 00:46:19;;;;;;;11.45;5.85;;;;;;;9.18;82.22;98521.22;5052384;28;20036;-76
2022/04/30 00:48:45;;;;;;;11.32;6.10;;;;;;;9.15;81.85;98519.03;5052350;28;20052;-76
2022/04/30 00:51:12;;;;;;;8.90;5.60;;;;;;;9.12;82.31;98525.88;5052328;28;20394;-75
2022/04/30 00:53:39;;;;;;;9.27;5.20;;;;;;;9.04;83.17;98520.13;5052114;28;20033;-75
2022/04/30 00:56:09;;;;;;;9.10;5.18;;;;;;;8.93;83.81;98508.38;5052176;28;20056;-76
2022/04/30 00:58:37;;;;;;;9.60;5.65;;;;;;;8.83;83.35;98515.75;5052191;28;20060;-75
2022/04/30 01:01:04;;;;;;;11.23;5.90;;;;;;;8.89;85.01;98511.94;5052229;28;20028;-78
2022/04/30 01:03:30;;;;;;;13.40;5.95;;;;;;;8.82;83.86;98505.91;5050605;28;20103;-76
2022/04/30 01:05:55;;;;;;;8.60;5.72;;;;;;;8.89;84.01;98509.22;5052049;28;20028;-74
2022/04/30 01:08:21;;;;;;;17.30;6.35;;;;;;;8.87;84.12;98514.09;5050936;28;20095;-77
2022/04/30 01:10:47;;;;;;;7.53;5.13;;;;;;;8.80;83.34;98516.28;5052490;28;20025;-76
2022/04/30 01:13:13;;;;;;;9.18;5.68;;;;;;;8.81;84.24;98509.72;5052052;28;20466;-76
2022/04/30 01:15:39;;;;;;;11.75;6.05;;;;;;;8.87;85.18;98516.84;5052026;28;20120;-75
2022/04/30 01:18:08;;;;;;;8.35;5.55;;;;;;;8.70;86.03;98502.63;5051874;28;20021;-76
2022/04/30 01:20:34;;;;;;;9.80;5.65;;;;;;;8.46;86.91;98499.56;5051977;28;20768;-76
2022/04/30 01:23:02;;;;;;;7.95;4.95;;;;;;;8.39;87.33;98499.84;5051768;28;20745;-77
2022/04/30 01:25:30;;;;;;;9.85;5.35;;;;;;;8.22;88.72;98493.72;5050689;28;20787;-74
2022/04/30 01:27:59;;;;;;;8.70;5.30;;;;;;;8.15;90.29;98501.31;5052751;28;20120;-76
2022/04/30 01:30:24;;;;;;;9.75;5.78;;;;;;;7.95;91.76;98503.97;5055288;28;20474;-77
2022/04/30 01:38:20;;;;;;;8.38;5.18;;;;;;;7.93;93.30;98508.84;5051648;28;20040;-74
2022/04/30 01:40:46;;;;;;;11.60;5.25;;;;;;;7.89;93.25;98505.81;5051513;28;20047;-78
2022/04/30 01:43:12;;;;;;;8.40;5.45;;;;;;;7.86;94.20;98503.63;5052505;28;20036;-77
2022/04/30 01:45:37;;;;;;;8.70;5.38;;;;;;;7.81;95.19;98505.50;5049939;28;20029;-76
2022/04/30 01:48:04;;;;;;;12.25;6.05;;;;;;;7.81;95.41;98500.06;5045328;28;20052;-75
2022/04/30 01:50:32;;;;;;;10.82;5.35;;;;;;;7.73;96.23;98492.41;5051385;28;20386;-77
2022/04/30 01:52:57;;;;;;;11.88;6.35;;;;;;;7.81;96.46;98492.72;5051189;28;20078;-75
2022/04/30 01:55:23;;;;;;;9.70;5.68;;;;;;;7.87;95.97;98488.94;5050996;28;20017;-75
2022/04/30 01:57:48;;;;;;;8.93;5.55;;;;;;;7.83;96.33;98482.38;5050917;28;20108;-76
2022/04/30 02:00:14;;;;;;;11.45;5.88;;;;;;;7.79;96.63;98486.72;5050750;28;20032;-75
2022/04/30 02:02:45;;;;;;;11.48;5.93;;;;;;;7.69;97.68;98486.66;5050081;28;20080;-77
2022/04/30 02:05:13;;;;;;;10.48;6.25;;;;;;;7.68;98.79;98495.09;5051039;28;20036;-77
2022/04/30 02:07:48;;;;;;;11.30;6.00;;;;;;;7.60;99.61;98487.44;5050508;28;20113;-77
2022/04/30 02:10:14;;;;;;;12.18;6.15;;;;;;;7.57;100.00;98480.59;5050608;28;20531;-76
2022/04/30 02:12:40;;;;;;;8.32;5.97;;;;;;;7.61;100.00;98484.47;5050691;28;20123;-76
2022/04/30 02:15:08;;;;;;;8.30;6.00;;;;;;;7.53;100.00;98488.47;5050396;28;20120;-75
2022/04/30 02:17:36;;;;;;;11.35;6.28;;;;;;;7.47;100.00;98484.09;5050221;28;20600;-76
2022/04/30 02:20:24;;;;;;;11.85;6.03;;;;;;;7.44;100.00;98478.34;5049152;28;20029;-76
2022/04/30 02:22:57;;;;;;;8.05;5.72;;;;;;;7.37;100.00;98469.56;5049444;28;20549;-76
2022/04/30 02:25:23;;;;;;;11.23;5.97;;;;;;;7.44;100.00;98467.47;5050549;28;20025;-75
2022/04/30 02:27:51;;;;;;;11.80;6.35;;;;;;;7.43;100.00;98471.25;5053127;28;20030;-78
2022/04/30 02:30:19;;;;;;;8.50;5.93;;;;;;;7.47;100.00;98461.50;5057819;28;20012;-78
2022/04/30 02:32:50;;;;;;;9.98;6.50;;;;;;;7.61;100.00;98462.69;5053879;28;20059;-76
2022/04/30 02:35:24;;;;;;;14.48;6.25;;;;;;;7.78;99.40;98452.41;5050263;28;20015;-77
2022/04/30 02:37:52;;;;;;;10.50;5.95;;;;;;;7.73;99.03;98454.28;5049864;28;20036;-76
2022/04/30 02:40:19;;;;;;;9.27;5.78;;;;;;;7.66;98.84;98456.44;5050143;28;20043;-76
2022/04/30 02:42:46;;;;;;;7.78;5.47;;;;;;;7.62;99.51;98447.13;5050150;28;20382;-74
2022/04/30 02:45:12;;;;;;;9.88;6.03;;;;;;;7.60;100.00;98436.53;5050294;28;20040;-74
2022/04/30 02:47:39;;;;;;;15.02;6.45;;;;;;;7.48;100.00;98444.09;5050195;28;20478;-78
2022/04/30 02:50:07;;;;;;;9.68;6.32;;;;;;;7.54;100.00;98438.41;5050132;28;20533;-76
2022/04/30 02:52:32;;;;;;;8.93;6.05;;;;;;;7.63;100.00;98440.63;5050485;28;20025;-75
2022/04/30 02:54:58;;;;;;;10.48;6.45;;;;;;;7.52;100.00;98453.34;5049988;28;20651;-75
2022/04/30 02:57:23;;;;;;;11.30;6.22;;;;;;;7.42;100.00;98439.69;5050150;28;20025;-76
2022/04/30 02:59:54;;;;;;;10.20;5.95;;;;;;;7.50;100.00;98453.63;5050632;28;20060;-76
2022/04/30 03:02:21;;;;;;;10.60;5.78;;;;;;;7.43;100.00;98444.03;5048817;28;20033;-74
2022/04/30 03:04:51;;;;;;;11.18;6.43;;;;;;;7.29;100.00;98442.88;5049949;28;20108;-76
2022/04/30 03:07:22;;;;;;;12.50;6.72;;;;;;;7.34;100.00;98446.44;5050211;28;20033;-76
2022/04/30 03:09:49;;;;;;;8.30;6.13;;;;;;;7.40;100.00;98452.72;5049875;28;20036;-74
2022/04/30 03:12:15;;;;;;;10.32;6.93;;;;;;;7.39;100.00;98449.19;5049895;28;20025;-76
2022/04/30 03:14:42;;;;;;;10.00;6.57;;;;;;;7.41;100.00;98449.75;5051775;28;20029;-76
2022/04/30 03:22:41;;;;;;;9.10;5.68;;;;;;;6.92;100.00;98445.59;5054420;28;20080;-73
2022/04/30 03:25:07;;;;;;;13.60;7.38;;;;;;;6.82;100.00;98445.50;5053859;28;20036;-75
2022/04/30 03:27:34;;;;;;;9.75;6.35;;;;;;;6.69;100.00;98445.94;5052669;28;20028;-74
2022/04/30 03:29:59;;;;;;;10.60;6.10;;;;;;;6.62;100.00;98451.56;5053882;28;20378;-75
2022/04/30 03:32:25;;;;;;;9.00;6.03;;;;;;;6.51;100.00;98440.88;5055782;28;20025;-74
2022/04/30 03:34:52;;;;;;;11.50;6.32;;;;;;;6.41;100.00;98442.41;5054268;28;20021;-73
2022/04/30 03:37:18;;;;;;;13.57;6.57;;;;;;;6.33;100.00;98440.13;5053102;28;20013;-75
2022/04/30 03:39:43;;;;;;;9.05;6.18;;;;;;;6.33;100.00;98437.44;5056410;28;20036;-73
2022/04/30 03:42:09;;;;;;;10.63;5.60;;;;;;;6.33;100.00;98432.00;5058748;28;20091;-77
2022/04/30 03:44:34;;;;;;;10.43;6.13;;;;;;;6.31;100.00;98434.16;5057064;28;20025;-75
2022/04/30 03:47:00;;;;;;;12.07;6.82;;;;;;;6.28;100.00;98445.53;5053650;28;20036;-74
2022/04/30 03:49:25;;;;;;;9.65;5.78;;;;;;;6.34;100.00;98451.84;5053418;28;20079;-75
2022/04/30 03:51:51;;;;;;;10.50;5.65;;;;;;;6.27;100.00;98449.31;5053960;28;20029;-75
2022/04/30 03:54:16;;;;;;;8.57;5.97;;;;;;;6.23;100.00;98445.50;5054272;28;20390;-75
2022/04/30 03:56:41;;;;;;;10.25;6.10;;;;;;;6.25;100.00;98447.94;5053834;28;20035;-73
2022/04/30 03:59:07;;;;;;;9.88;5.90;;;;;;;6.28;100.00;98437.38;5052321;28;20500;-75
2022/04/30 04:01:34;;;;;;;9.40;5.68;;;;;;;6.34;100.00;98449.94;5053371;28;20036;-73
2022/04/30 04:04:00;;;;;;;10.70;6.07;;;;;;;6.32;100.00;98445.84;5053201;28;20056;-75
2022/04/30 04:06:26;;;;;;;9.00;5.95;;;;;;;6.44;100.00;98446.50;5053239;28;20025;-75
2022/04/30 04:08:52;;;;;;;12.70;6.32;;;;;;;6.45;100.00;98454.38;5047255;28;20094;-73
2022/04/30 04:11:18;;;;;;;13.35;6.95;;;;;;;6.50;100.00;98450.09;5072385;28;20028;-76
2022/04/30 04:19:12;;;;;;;11.45;6.65;;;;;;;6.59;100.00;98453.97;5053268;28;20087;-76
2022/04/30 04:21:38;;;;;;;12.13;6.68;;;;;;;6.66;100.00;98449.16;5053302;28;20429;-77
2022/04/30 04:26:48;;;;;;;8.18;5.47;;;;;;;6.94;100.00;98459.75;5065244;28;20082;-76
2022/04/30 04:29:16;;;;;;;11.95;5.93;;;;;;;7.03;100.00;98468.22;5072615;28;20028;-74
2022/04/30 04:31:42;;;;;;;10.10;6.43;;;;;;;7.26;100.00;98457.81;5072577;28;20029;-75
2022/04/30 04:34:08;;;;;;;8.77;6.00;;;;;;;7.45;100.00;98464.50;5072602;28;20029;-75
2022/04/30 04:36:33;;;;;;;13.07;5.90;;;;;;;7.57;100.00;98455.28;5073102;28;20545;-76
2022/04/30 04:38:59;;;;;;;11.48;6.45;;;;;;;8.02;100.00;98469.94;5075859;28;20025;-85
2022/04/30 04:41:24;;;;;;;9.82;5.90;;;;;;;8.46;100.00;98464.94;5078634;28;20013;-78
2022/04/30 04:43:49;;;;;;;11.73;6.38;;;;;;;8.72;98.36;98467.72;5073954;28;20021;-78
2022/04/30 04:46:15;;;;;;;11.30;6.47;;;;;;;8.74;97.69;98471.00;5072188;28;20774;-77
2022/04/30 04:48:41;;;;;;;9.18;6.50;;;;;;;8.74;97.49;98471.00;5072236;28;20025;-74
2022/04/30 04:51:07;;;;;;;17.17;8.00;;;;;;;8.99;94.85;98473.75;5072667;28;20099;-76
2022/04/30 04:53:32;;;;;;;14.75;7.43;;;;;;;9.09;94.48;98471.00;5072218;28;20020;-76
2022/04/30 04:55:59;;;;;;;11.85;7.07;;;;;;;9.12;93.37;98473.19;5077414;28;20028;-76
2022/04/30 04:58:24;;;;;;;9.50;6.43;;;;;;;9.47;89.17;98464.16;5071235;28;20158;-77
2022/04/30 05:00:49;;;;;;;9.52;5.90;;;;;;;9.45;87.31;98469.91;5071907;28;20103;-77
2022/04/30 05:03:15;;;;;;;9.82;6.07;;;;;;;9.37;86.90;98469.63;5058795;28;20097;-75
2022/04/30 05:05:40;;;;;;;12.68;5.90;;;;;;;9.36;87.00;98468.84;5051552;28;20048;-75
2022/04/30 05:08:06;;;;;;;13.23;6.32;;;;;;;9.25;88.80;98474.56;5051978;28;20413;-77
2022/04/30 05:10:32;;;;;;;11.27;6.50;;;;;;;9.31;89.02;98474.28;5050503;28;20024;-76
2022/04/30 05:12:57;;;;;;;10.60;5.95;;;;;;;9.54;87.78;98472.91;5051532;28;20025;-76
2022/04/30 05:15:23;;;;;;;9.82;6.13;;;;;;;9.49;87.87;98468.25;5051660;28;20033;-75
2022/04/30 05:17:48;;;;;;;11.20;6.60;;;;;;;9.60;87.13;98467.16;5050316;28;20032;-73
2022/04/30 05:20:14;;;;;;;10.75;6.13;;;;;;;9.57;87.03;98475.06;5051390;28;20029;-74
2022/04/30 05:22:39;;;;;;;10.13;6.55;;;;;;;9.62;86.30;98467.69;5050823;28;20551;-76
2022/04/30 05:25:05;;;;;;;11.15;6.35;;;;;;;9.84;85.50;98466.53;5051393;28;20025;-76
2022/04/30 05:27:30;;;;;;;10.60;6.68;;;;;;;9.89;84.24;98472.00;5053261;28;20029;-76
2022/04/30 05:29:56;;;;;;;10.35;5.55;;;;;;;9.83;84.60;98464.91;5051673;28;20088;-75
2022/04/30 05:32:21;;;;;;;9.85;5.30;;;;;;;9.95;83.57;98470.88;5047129;28;20033;-76
2022/04/30 05:34:47;;;;;;;11.52;6.88;;;;;;;10.26;82.80;98474.34;5035663;28;20143;-75
2022/04/30 05:37:12;;;;;;;15.20;7.07;;;;;;;10.36;82.51;98468.84;5032096;28;20025;-76
2022/04/30 05:39:38;;;;;;;11.95;6.78;;;;;;;10.32;82.92;98471.31;5051657;28;20060;-74
2022/04/30 05:42:04;;;;;;;9.52;6.63;;;;;;;10.67;81.44;98476.59;5051767;28;20032;-75
2022/04/30 05:44:29;;;;;;;13.68;7.13;;;;;;;10.85;80.22;98477.84;5050142;28;20543;-74
2022/04/30 05:46:54;;;;;;;12.15;7.28;;;;;;;10.79;80.46;98480.88;5049956;28;20029;-73
2022/04/30 05:49:20;;;;;;;11.43;6.90;;;;;;;10.85;80.18;98472.38;5049700;28;20013;-76
2022/04/30 05:51:45;;;;;;;10.90;7.07;;;;;;;11.20;78.31;98471.28;5035815;28;20108;-75
2022/04/30 05:54:10;;;;;;;10.32;6.50;;;;;;;11.37;77.73;98477.13;5036221;28;20026;-76
2022/04/30 05:56:36;;;;;;;15.13;6.95;;;;;;;11.03;78.26;98470.84;5030170;28;20018;-76
2022/04/30 05:59:01;;;;;;;13.50;7.40;;;;;;;11.20;77.69;98474.84;5029560;28;20044;-75
2022/04/30 06:01:27;;;;;;;14.30;6.97;;;;;;;11.16;77.26;98464.72;5050165;28;20469;-74
2022/04/30 06:03:53;;;;;;;11.10;7.60;;;;;;;11.21;77.49;98473.72;5049245;28;20055;-77
2022/04/30 06:06:20;;;;;;;11.13;6.63;;;;;;;11.48;76.44;98459.53;5050827;28;20060;-75
2022/04/30 06:08:47;;;;;;;14.43;7.47;;;;;;;11.70;74.78;98464.53;5050919;28;20025;-75
2022/04/30 06:11:12;;;;;;;9.65;6.65;;;;;;;11.39;75.99;98465.91;5050849;28;20389;-74
2022/04/30 06:13:38;;;;;;;10.88;6.25;;;;;;;11.68;75.16;98467.53;5050840;28;20108;-73
2022/04/30 06:16:03;;;;;;;12.15;6.78;;;;;;;11.69;73.85;98463.69;5050539;28;20040;-74
2022/04/30 06:18:29;;;;;;;10.90;6.10;;;;;;;11.76;73.31;98463.38;5048063;28;20024;-74
2022/04/30 06:20:54;;;;;;;11.38;8.02;;;;;;;11.48;74.04;98473.22;5048841;28;20111;-74
2022/04/30 06:23:20;;;;;;;8.57;6.25;;;;;;;11.69;73.68;98469.16;5049597;28;20033;-74
2022/04/30 06:25:45;;;;;;;13.10;7.68;;;;;;;12.17;71.81;98469.22;5049125;28;20071;-74
2022/04/30 06:28:12;;;;;;;10.73;6.47;;;;;;;12.95;68.37;98461.28;5043878;28;20601;-75
2022/04/30 06:30:39;;;;;;;14.57;9.88;;;;;;;13.91;64.15;98470.63;5049049;28;20116;-73
2022/04/30 06:33:05;;;;;;;26.13;12.07;;;;;;;14.19;61.42;98468.72;5047956;28;20155;-71
2022/04/30 06:35:30;;;;;;;16.10;7.95;;;;;;;13.65;62.55;98459.31;5049112;28;20112;-73
2022/04/30 06:37:55;;;;;;;9.23;6.38;;;;;;;13.43;63.47;98466.56;5049214;28;20389;-73
2022/04/30 06:40:21;;;;;;;10.00;6.72;;;;;;;13.72;62.75;98470.69;5049801;28;20070;-72
2022/04/30 06:42:46;;;;;;;10.93;5.85;;;;;;;14.20;61.46;98464.81;5047684;28;20553;-71
2022/04/30 06:45:13;;;;;;;9.10;6.03;;;;;;;14.16;60.64;98466.59;5047543;28;20029;-74
2022/04/30 06:47:39;;;;;;;8.40;5.85;;;;;;;13.56;63.23;98463.06;5049405;28;20016;-72
2022/04/30 06:50:06;;;;;;;10.23;5.70;;;;;;;13.25;63.88;98452.56;5055605;28;20039;-78
2022/04/30 06:52:31;;;;;;;11.77;6.25;;;;;;;13.47;63.96;98459.38;5057164;28;20013;-74
2022/04/30 06:57:43;;;;;;;14.82;6.07;;;;;;;13.89;60.38;98451.69;5051801;28;20874;-72
2022/04/30 07:02:55;;;;;;;7.83;5.00;;;;;;;14.15;59.35;98441.00;5051814;28;20106;-73
2022/04/30 07:05:21;;;;;;;8.30;5.78;;;;;;;14.25;58.50;98437.22;5048099;28;20298;-73
2022/04/30 07:07:57;;;;;;;12.10;6.60;;;;;;;13.93;58.99;98436.22;5052110;28;20025;-73
2022/04/30 07:10:22;;;;;;;13.02;5.47;;;;;;;13.84;59.56;98440.81;5048648;28;20032;-72
2022/04/30 07:12:48;;;;;;;8.30;5.35;;;;;;;13.95;59.14;98433.97;5051325;28;20106;-72
2022/04/30 07:15:14;;;;;;;10.95;6.00;;;;;;;14.29;58.65;98436.28;5051994;28;20438;-76
2022/04/30 07:17:39;;;;;;;9.00;5.53;;;;;;;14.57;57.68;98428.81;5052365;28;20021;-73
2022/04/30 07:20:07;;;;;;;8.38;5.28;;;;;;;14.59;56.73;98440.38;5052858;28;20048;-72
2022/04/30 07:22:32;;;;;;;11.10;5.15;;;;;;;14.65;56.36;98435.56;5052887;28;20462;-71
2022/04/30 07:24:58;;;;;;;9.93;5.28;;;;;;;14.72;56.47;98430.44;5052971;28;20475;-71
2022/04/30 07:27:23;;;;;;;11.02;4.85;;;;;;;15.08;55.21;98439.47;5051842;28;20032;-72
2022/04/30 07:29:48;;;;;;;6.65;4.90;;;;;;;15.00;55.63;98438.28;5052087;28;20041;-72
2022/04/30 07:32:14;;;;;;;11.25;6.00;;;;;;;15.23;54.99;98430.00;5051864;28;20474;-72
2022/04/30 07:34:40;;;;;;;9.50;5.25;;;;;;;15.35;54.85;98427.50;5053706;28;20094;-73
2022/04/30 07:37:10;;;;;;;6.82;4.20;;;;;;;15.47;53.13;98427.75;5053507;28;20025;-74
2022/04/30 07:39:36;;;;;;;8.85;4.85;;;;;;;15.52;53.31;98424.88;5052635;28;20053;-74
2022/04/30 07:42:02;;;;;;;7.45;4.60;;;;;;;15.79;52.80;98415.59;5051438;28;20118;-73
2022/04/30 07:44:30;;;;;;;8.88;4.80;;;;;;;16.11;51.69;98422.72;5053141;28;20040;-74
2022/04/30 07:46:55;;;;;;;7.72;4.30;;;;;;;16.44;50.33;98429.47;5052084;28;20402;-76
2022/04/30 07:49:21;;;;;;;12.95;5.00;;;;;;;16.53;51.26;98419.25;5053013;28;20033;-73
2022/04/30 07:51:58;;;;;;;6.25;4.43;;;;;;;16.86;49.86;98417.69;5067003;28;20520;-73
2022/04/30 07:54:25;;;;;;;6.82;4.13;;;;;;;17.24;48.38;98417.84;5072519;28;20052;-74
2022/04/30 07:56:55;;;;;;;8.43;4.53;;;;;;;17.84;46.94;98409.41;5072684;28;20440;-72
2022/04/30 07:59:22;;;;;;;7.28;4.20;;;;;;;18.34;45.86;98415.03;5073764;28;20029;-73
2022/04/30 08:01:48;;;;;;;6.38;4.25;;;;;;;19.65;43.53;98411.72;5072087;28;20375;-74
2022/04/30 08:04:14;;;;;;;5.50;3.65;;;;;;;21.64;37.97;98414.03;5075676;28;20051;-73
2022/04/30 08:06:39;;;;;;;5.13;3.55;;;;;;;21.94;37.48;98414.44;5072577;28;20029;-73
2022/04/30 08:09:05;;;;;;;6.28;4.57;;;;;;;22.72;35.59;98408.81;5074250;28;20024;-75
2022/04/30 08:11:30;;;;;;;6.43;3.88;;;;;;;25.78;29.87;98406.88;5073840;28;20029;-74
2022/04/30 08:13:56;;;;;;;9.60;5.13;;;;;;;25.86;28.55;98410.56;5072395;28;20025;-72
2022/04/30 08:16:22;;;;;;;6.80;3.67;;;;;;;27.28;26.96;98406.88;5074657;28;20393;-74
2022/04/30 08:18:47;;;;;;;27.98;17.05;;;;;;;28.12;29.25;98406.34;5073190;28;20028;-75
2022/04/30 08:21:13;;;;;;;5.53;3.80;;;;;;;26.96;28.80;98401.88;5075937;28;20443;-74
2022/04/30 08:23:38;;;;;;;6.50;3.70;;;;;;;28.87;24.62;98405.13;5077591;28;20473;-75
2022/04/30 08:26:04;;;;;;;7.38;3.80;;;;;;;26.94;25.70;98401.47;5076711;28;21513;-74
2022/04/30 08:28:30;;;;;;;5.65;3.75;;;;;;;26.31;27.29;98401.00;5076884;28;20028;-77
2022/04/30 08:30:56;;;;;;;5.93;3.85;;;;;;;27.53;26.22;98400.19;5076451;28;20116;-86
2022/04/30 08:33:22;;;;;;;5.55;3.78;;;;;;;26.09;26.04;98406.38;5079750;28;20063;-82
2022/04/30 08:35:48;;;;;;;6.05;3.53;;;;;;;29.34;24.92;98408.66;5075232;28;20029;-81
2022/04/30 08:38:15;;;;;;;6.68;4.15;;;;;;;29.19;26.07;98402.25;5074611;28;20017;-80
2022/04/30 08:40:44;;;;;;;5.47;3.75;;;;;;;28.34;25.25;98407.97;5075097;28;20062;-79
2022/04/30 08:43:14;;;;;;;8.30;4.60;;;;;;;26.72;26.25;98394.06;5074525;28;20078;-81
2022/04/30 08:45:41;;;;;;;7.05;4.32;;;;;;;26.02;27.34;98395.13;5072791;28;20032;-81
2022/04/30 08:48:08;;;;;;;5.90;4.05;;;;;;;27.02;25.49;98386.28;5072815;28;20031;-82
2022/04/30 08:50:34;;;;;;;6.30;3.58;;;;;;;27.09;25.95;98391.94;5075064;28;20009;-81
2022/04/30 08:53:00;;;;;;;6.32;4.05;;;;;;;27.35;25.97;98388.00;5075952;28;20059;-78
2022/04/30 08:55:26;;;;;;;5.28;3.88;;;;;;;28.46;24.99;98395.50;5077236;28;20166;-84
2022/04/30 08:57:51;;;;;;;4.93;3.63;;;;;;;29.03;26.94;98382.97;5075250;28;20032;-83
2022/04/30 09:00:17;;;;;;;5.93;4.00;;;;;;;29.68;21.81;98382.28;5073899;28;20025;-82
2022/04/30 09:02:50;;;;;;;6.80;4.18;;;;;;;29.50;21.87;98375.94;5073810;28;20044;-83
2022/04/30 09:05:15;;;;;;;5.95;4.05;;;;;;;27.49;25.11;98378.88;5074650;28;20036;-80
2022/04/30 09:07:41;;;;;;;6.47;3.90;;;;;;;29.31;24.75;98384.91;5075124;28;20490;-82
2022/04/30 09:10:07;;;;;;;5.35;3.58;;;;;;;28.84;24.72;98371.34;5063924;28;20108;-80
2022/04/30 09:12:33;;;;;;;5.88;4.07;;;;;;;23.56;29.71;98367.94;5051792;28;20056;-78
2022/04/30 09:14:59;;;;;;;5.68;3.72;;;;;;;27.21;24.78;98365.50;5052773;28;20079;-79
2022/04/30 09:17:28;;;;;;;6.07;4.20;;;;;;;28.17;23.56;98363.72;5053044;28;20035;-81
2022/04/30 09:19:56;;;;;;;6.53;3.83;;;;;;;27.69;24.20;98356.84;5051821;28;20033;-84
2022/04/30 09:22:31;;;;;;;6.28;4.22;;;;;;;26.79;23.83;98332.34;5055249;28;20033;-85
2022/04/30 09:24:58;;;;;;;6.35;3.95;;;;;;;26.66;23.89;98339.50;5051478;28;20025;-82
2022/04/30 09:27:25;;;;;;;6.03;3.63;;;;;;;27.22;24.11;98333.38;5051084;28;20025;-79
2022/04/30 09:29:51;;;;;;;6.70;3.55;;;;;;;28.34;23.12;98336.78;5052342;28;20021;-80
2022/04/30 09:32:22;;;;;;;6.53;3.85;;;;;;;28.01;25.80;98335.97;5050960;28;20428;-79
2022/04/30 09:37:42;;;;;;;5.07;3.60;;;;;;;27.17;23.31;98319.72;5053795;28;20039;-80
2022/04/30 09:40:16;;;;;;;6.68;3.33;;;;;;;28.80;21.88;98319.81;5051626;28;20060;-81
2022/04/30 09:42:43;;;;;;;6.67;3.60;;;;;;;29.23;21.50;98322.06;5050141;28;20033;-79
2022/04/30 09:45:22;;;;;;;7.15;3.70;;;;;;;28.73;21.35;98312.19;5053169;28;20032;-83
2022/04/30 09:47:48;;;;;;;5.25;3.30;;;;;;;28.37;22.17;98307.84;5052934;28;20033;-82
2022/04/30 09:55:49;;;;;;;6.07;3.53;;;;;;;26.96;24.30;98295.16;5053055;28;20028;-79
2022/04/30 09:58:20;;;;;;;7.00;3.20;;;;;;;28.19;23.10;98290.97;5051332;28;20025;-80
2022/04/30 10:00:46;;;;;;;4.20;3.22;;;;;;;28.28;24.00;98282.94;5050069;28;20115;-78
2022/04/30 10:03:13;;;;;;;5.57;4.07;;;;;;;25.76;25.82;98277.50;5051139;28;20049;-82
2022/04/30 10:05:40;;;;;;;5.93;3.60;;;;;;;27.76;23.34;98292.94;5055880;28;20013;-83
2022/04/30 10:08:06;;;;;;;5.93;3.80;;;;;;;27.16;23.46;98270.31;5051892;28;20032;-82
2022/04/30 10:10:45;;;;;;;6.78;4.15;;;;;;;24.39;29.80;98252.34;5057998;28;20025;-83
2022/04/30 10:13:33;;;;;;;4.72;3.70;;;;;;;26.63;27.14;98261.66;5062017;28;20021;-85
2022/04/30 10:16:01;;;;;;;5.57;3.88;;;;;;;23.81;29.71;98259.41;5054813;28;20017;-82
2022/04/30 10:18:42;;;;;;;6.90;3.83;;;;;;;24.50;28.92;98255.25;5049140;28;20029;-80
2022/04/30 10:21:18;;;;;;;5.25;3.58;;;;;;;23.95;30.29;98252.06;5054625;28;20098;-80
2022/04/30 10:23:44;;;;;;;6.00;3.83;;;;;;;25.58;27.84;98256.13;5051171;28;20122;-82
2022/04/30 10:26:09;;;;;;;6.32;4.10;;;;;;;26.57;26.85;98244.41;5050114;28;20029;-74
2022/04/30 10:28:35;;;;;;;5.90;3.55;;;;;;;26.57;25.71;98250.03;5057316;28;20127;-80
2022/04/30 10:31:05;;;;;;;4.50;2.97;;;;;;;26.25;25.95;98234.22;5052923;28;20058;-81
2022/04/30 10:33:32;;;;;;;6.30;3.25;;;;;;;27.66;25.25;98232.69;5051024;28;20091;-80
2022/04/30 10:36:10;;;;;;;5.97;2.80;;;;;;;27.39;23.92;98236.25;5051011;28;20025;-79
2022/04/30 10:38:36;;;;;;;5.00;3.40;;;;;;;27.50;24.48;98237.91;5049564;28;20029;-79
2022/04/30 10:41:03;;;;;;;6.70;3.20;;;;;;;25.91;26.34;98233.56;5049703;28;20086;-81
2022/04/30 10:43:37;;;;;;;4.88;3.53;;;;;;;26.12;26.38;98230.91;5050581;28;20017;-80
2022/04/30 10:46:18;;;;;;;6.32;3.60;;;;;;;23.69;27.80;98228.88;5050767;28;20040;-81
2022/04/30 10:48:44;;;;;;;4.63;3.35;;;;;;;23.06;28.55;98215.41;5051524;28;20040;-81
2022/04/30 10:51:15;;;;;;;4.50;3.17;;;;;;;22.77;28.77;98210.47;5053413;28;20025;-85
2022/04/30 10:53:43;;;;;;;4.93;3.25;;;;;;;21.30;31.61;98193.59;5051792;28;20489;-79
2022/04/30 10:56:09;;;;;;;4.32;2.95;;;;;;;20.94;31.65;98185.50;5051040;28;20045;-80
2022/04/30 10:58:39;;;;;;;6.28;3.38;;;;;;;20.66;32.36;98179.97;5051843;28;20044;-79
2022/04/30 11:01:16;;;;;;;4.75;3.00;;;;;;;20.30;33.08;98178.16;5051205;28;20215;-83
2022/04/30 11:03:43;;;;;;;3.75;2.72;;;;;;;20.52;32.88;98181.53;5051368;28;20048;-79
2022/04/30 11:06:16;;;;;;;5.03;3.20;;;;;;;19.88;32.19;98178.84;5050807;28;20043;-77
2022/04/30 11:08:42;;;;;;;6.00;3.60;;;;;;;20.10;32.09;98187.47;5050838;28;20115;-83
2022/04/30 11:11:08;;;;;;;5.10;3.40;;;;;;;20.31;34.15;98176.19;5051262;28;20451;-78
2022/04/30 11:13:33;;;;;;;4.68;2.75;;;;;;;20.72;32.27;98175.78;5052258;28;20082;-79
2022/04/30 11:15:59;;;;;;;6.00;2.83;;;;;;;20.73;31.87;98162.69;5051708;28;20482;-81
2022/04/30 11:18:25;;;;;;;4.47;3.05;;;;;;;20.44;33.83;98165.84;5054229;28;20112;-83
2022/04/30 11:21:01;;;;;;;5.30;2.70;;;;;;;20.49;31.75;98169.16;5051805;28;20359;-82
2022/04/30 11:23:26;;;;;;;4.20;3.00;;;;;;;20.13;31.00;98158.19;5052497;28;20035;-84
2022/04/30 11:25:52;;;;;;;4.10;2.80;;;;;;;20.02;30.38;98168.16;5051898;28;20440;-81
2022/04/30 11:28:17;;;;;;;5.07;2.90;;;;;;;19.58;32.21;98151.38;5050773;28;20060;-77
2022/04/30 11:30:45;;;;;;;4.38;2.67;;;;;;;19.33;32.11;98155.28;5051195;28;20110;-78
2022/04/30 11:33:12;;;;;;;4.25;3.25;;;;;;;19.59;33.12;98147.44;5050411;28;20025;-77
2022/04/30 11:35:38;;;;;;;6.28;3.25;;;;;;;20.20;31.26;98141.72;5050767;28;20036;-82
2022/04/30 11:38:09;;;;;;;4.57;2.80;;;;;;;21.08;31.89;98144.13;5054076;28;20017;-78
2022/04/30 11:40:34;;;;;;;3.40;2.42;;;;;;;21.85;31.58;98136.84;5052732;28;20111;-80
2022/04/30 11:43:02;;;;;;;3.85;2.65;;;;;;;22.26;28.60;98143.72;5053816;28;20105;-79
2022/04/30 11:45:31;;;;;;;3.58;2.70;;;;;;;22.33;29.42;98131.91;5054220;28;20428;-80
2022/04/30 11:47:57;;;;;;;11.50;2.90;;;;;;;21.75;28.24;98136.59;5054076;28;20029;-78
2022/04/30 11:50:24;;;;;;;4.13;2.72;;;;;;;20.87;29.20;98117.72;5054686;28;20027;-80
2022/04/30 11:52:50;;;;;;;4.00;2.47;;;;;;;20.72;29.70;98122.13;5054630;28;20021;-80
2022/04/30 11:55:16;;;;;;;3.85;2.58;;;;;;;20.81;31.03;98117.19;5054172;28;21028;-79
2022/04/30 11:57:43;;;;;;;5.63;2.75;;;;;;;20.71;29.61;98120.50;5052798;28;20029;-81
2022/04/30 12:00:13;;;;;;;4.32;2.92;;;;;;;20.69;29.93;98120.06;5056491;28;20036;-80
2022/04/30 12:02:44;;;;;;;3.63;2.63;;;;;;;20.61;30.01;98118.28;5055605;28;20057;-80
2022/04/30 12:05:10;;;;;;;5.30;2.67;;;;;;;20.19;30.50;98124.25;5054658;28;20064;-78